sensor_id;sensor_type;location;lat;lon;timestamp;P1;durP1;ratioP1;P2;durP2;ratioP2
22965;SDS011;11649;48.090;9.754;2022-12-29T00:02:21;4.38;;;3.03;;
22965;SDS011;11649;48.090;9.754;2022-12-29T00:04:49;5.50;;;2.65;;
22965;SDS011;11649;48.090;9.754;2022-12-29T00:07:17;3.65;;;2.55;;
22965;SDS011;11649;48.090;9.754;2022-12-29T00:09:44;2.50;;;1.98;;
22965;SDS011;11649;48.090;9.754;2022-12-29T00:12:11;3.58;;;1.95;;
22965;SDS011;11649;48.090;9.754;2022-12-29T00:14:38;2.60;;;1.70;;
22965;SDS011;11649;48.090;9.754;2022-12-29T00:17:23;2.30;;;1.70;;
22965;SDS011;11649;48.090;9.754;2022-12-29T00:19:50;4.25;;;1.77;;
22965;SDS011;11649;48.090;9.754;2022-12-29T00:22:35;4.53;;;1.60;;
22965;SDS011;11649;48.090;9.754;2022-12-29T00:25:21;3.08;;;2.20;;
22965;SDS011;11649;48.090;9.754;2022-12-29T00:28:07;2.63;;;1.73;;
22965;SDS011;11649;48.090;9.754;2022-12-29T00:30:58;2.80;;;1.92;;
22965;SDS011;11649;48.090;9.754;2022-12-29T00:33:44;4.38;;;1.90;;
22965;SDS011;11649;48.090;9.754;2022-12-29T00:36:32;2.30;;;1.88;;
22965;SDS011;11649;48.090;9.754;2022-12-29T00:39:04;2.17;;;1.50;;
22965;SDS011;11649;48.090;9.754;2022-12-29T00:41:54;3.90;;;2.42;;
22965;SDS011;11649;48.090;9.754;2022-12-29T00:44:39;3.53;;;1.90;;
22965;SDS011;11649;48.090;9.754;2022-12-29T00:47:06;3.50;;;2.10;;
22965;SDS011;11649;48.090;9.754;2022-12-29T00:49:33;2.90;;;1.80;;
22965;SDS011;11649;48.090;9.754;2022-12-29T00:54:30;2.60;;;1.67;;
22965;SDS011;11649;48.090;9.754;2022-12-29T00:56:59;3.17;;;1.90;;
22965;SDS011;11649;48.090;9.754;2022-12-29T00:59:26;5.85;;;2.33;;
22965;SDS011;11649;48.090;9.754;2022-12-29T01:01:53;2.97;;;2.20;;
22965;SDS011;11649;48.090;9.754;2022-12-29T01:04:22;2.95;;;1.80;;
22965;SDS011;11649;48.090;9.754;2022-12-29T01:06:50;3.85;;;1.92;;
22965;SDS011;11649;48.090;9.754;2022-12-29T01:09:17;2.50;;;1.73;;
22965;SDS011;11649;48.090;9.754;2022-12-29T01:12:04;4.45;;;1.63;;
22965;SDS011;11649;48.090;9.754;2022-12-29T01:14:32;2.50;;;1.70;;
22965;SDS011;11649;48.090;9.754;2022-12-29T01:16:59;2.03;;;1.42;;
22965;SDS011;11649;48.090;9.754;2022-12-29T01:19:26;2.92;;;1.80;;
22965;SDS011;11649;48.090;9.754;2022-12-29T01:21:52;2.85;;;1.77;;
22965;SDS011;11649;48.090;9.754;2022-12-29T01:24:20;4.40;;;1.83;;
22965;SDS011;11649;48.090;9.754;2022-12-29T01:26:47;2.42;;;1.50;;
22965;SDS011;11649;48.090;9.754;2022-12-29T01:29:15;3.55;;;1.83;;
22965;SDS011;11649;48.090;9.754;2022-12-29T01:31:43;2.35;;;1.50;;
22965;SDS011;11649;48.090;9.754;2022-12-29T01:34:10;2.88;;;1.52;;
22965;SDS011;11649;48.090;9.754;2022-12-29T01:36:37;2.53;;;1.52;;
22965;SDS011;11649;48.090;9.754;2022-12-29T01:39:04;2.65;;;1.35;;
22965;SDS011;11649;48.090;9.754;2022-12-29T01:41:30;2.45;;;1.27;;
22965;SDS011;11649;48.090;9.754;2022-12-29T01:43:58;1.90;;;1.20;;
22965;SDS011;11649;48.090;9.754;2022-12-29T01:46:38;1.45;;;1.20;;
22965;SDS011;11649;48.090;9.754;2022-12-29T01:49:19;1.92;;;1.30;;
22965;SDS011;11649;48.090;9.754;2022-12-29T01:51:54;1.80;;;1.40;;
22965;SDS011;11649;48.090;9.754;2022-12-29T01:57:00;3.08;;;2.25;;
22965;SDS011;11649;48.090;9.754;2022-12-29T01:59:31;2.05;;;1.30;;
22965;SDS011;11649;48.090;9.754;2022-12-29T02:02:01;1.70;;;1.20;;
22965;SDS011;11649;48.090;9.754;2022-12-29T02:04:29;1.65;;;1.20;;
22965;SDS011;11649;48.090;9.754;2022-12-29T02:07:07;2.53;;;1.30;;
22965;SDS011;11649;48.090;9.754;2022-12-29T02:09:40;1.92;;;1.25;;
22965;SDS011;11649;48.090;9.754;2022-12-29T02:12:08;2.45;;;1.23;;
22965;SDS011;11649;48.090;9.754;2022-12-29T02:14:36;2.25;;;1.60;;
22965;SDS011;11649;48.090;9.754;2022-12-29T02:17:13;1.88;;;1.45;;
22965;SDS011;11649;48.090;9.754;2022-12-29T02:30:57;1.67;;;1.33;;
22965;SDS011;11649;48.090;9.754;2022-12-29T02:39:48;3.40;;;1.33;;
22965;SDS011;11649;48.090;9.754;2022-12-29T02:45:13;2.58;;;1.55;;
22965;SDS011;11649;48.090;9.754;2022-12-29T02:50:24;1.80;;;1.35;;
22965;SDS011;11649;48.090;9.754;2022-12-29T02:52:58;1.50;;;1.25;;
22965;SDS011;11649;48.090;9.754;2022-12-29T02:55:27;1.90;;;1.40;;
22965;SDS011;11649;48.090;9.754;2022-12-29T03:04:23;1.95;;;1.30;;
22965;SDS011;11649;48.090;9.754;2022-12-29T03:06:53;1.90;;;1.50;;
22965;SDS011;11649;48.090;9.754;2022-12-29T03:15:20;1.10;;;1.00;;
22965;SDS011;11649;48.090;9.754;2022-12-29T03:18:19;2.22;;;1.23;;
22965;SDS011;11649;48.090;9.754;2022-12-29T03:20:52;2.20;;;1.30;;
22965;SDS011;11649;48.090;9.754;2022-12-29T03:23:29;2.00;;;1.40;;
22965;SDS011;11649;48.090;9.754;2022-12-29T03:25:59;1.63;;;1.30;;
22965;SDS011;11649;48.090;9.754;2022-12-29T03:28:39;2.22;;;1.50;;
22965;SDS011;11649;48.090;9.754;2022-12-29T03:31:13;1.60;;;1.20;;
22965;SDS011;11649;48.090;9.754;2022-12-29T03:33:42;2.97;;;1.40;;
22965;SDS011;11649;48.090;9.754;2022-12-29T03:36:12;1.90;;;1.40;;
22965;SDS011;11649;48.090;9.754;2022-12-29T03:38:44;1.88;;;1.30;;
22965;SDS011;11649;48.090;9.754;2022-12-29T03:41:20;1.48;;;1.30;;
22965;SDS011;11649;48.090;9.754;2022-12-29T03:43:52;3.28;;;1.50;;
22965;SDS011;11649;48.090;9.754;2022-12-29T03:46:18;2.65;;;1.52;;
22965;SDS011;11649;48.090;9.754;2022-12-29T03:48:45;1.73;;;1.50;;
22965;SDS011;11649;48.090;9.754;2022-12-29T03:51:12;2.42;;;1.70;;
22965;SDS011;11649;48.090;9.754;2022-12-29T03:53:39;2.70;;;1.60;;
22965;SDS011;11649;48.090;9.754;2022-12-29T03:56:06;2.30;;;1.50;;
22965;SDS011;11649;48.090;9.754;2022-12-29T03:58:33;2.33;;;1.50;;
22965;SDS011;11649;48.090;9.754;2022-12-29T04:01:00;4.13;;;1.25;;
22965;SDS011;11649;48.090;9.754;2022-12-29T04:03:27;2.30;;;1.60;;
22965;SDS011;11649;48.090;9.754;2022-12-29T04:05:54;2.90;;;1.30;;
22965;SDS011;11649;48.090;9.754;2022-12-29T04:08:20;3.25;;;1.48;;
22965;SDS011;11649;48.090;9.754;2022-12-29T04:10:48;2.63;;;1.40;;
22965;SDS011;11649;48.090;9.754;2022-12-29T04:13:15;1.48;;;1.20;;
22965;SDS011;11649;48.090;9.754;2022-12-29T04:15:43;2.50;;;1.70;;
22965;SDS011;11649;48.090;9.754;2022-12-29T04:18:11;3.47;;;1.65;;
22965;SDS011;11649;48.090;9.754;2022-12-29T04:20:39;2.38;;;1.40;;
22965;SDS011;11649;48.090;9.754;2022-12-29T04:23:24;4.38;;;1.40;;
22965;SDS011;11649;48.090;9.754;2022-12-29T04:25:52;1.83;;;1.40;;
22965;SDS011;11649;48.090;9.754;2022-12-29T04:28:19;2.63;;;1.60;;
22965;SDS011;11649;48.090;9.754;2022-12-29T04:30:46;1.90;;;1.40;;
22965;SDS011;11649;48.090;9.754;2022-12-29T04:33:13;1.70;;;1.50;;
22965;SDS011;11649;48.090;9.754;2022-12-29T04:35:40;1.67;;;1.30;;
22965;SDS011;11649;48.090;9.754;2022-12-29T04:38:08;1.80;;;1.40;;
22965;SDS011;11649;48.090;9.754;2022-12-29T04:40:35;2.42;;;1.58;;
22965;SDS011;11649;48.090;9.754;2022-12-29T04:43:05;3.95;;;1.65;;
22965;SDS011;11649;48.090;9.754;2022-12-29T04:45:32;1.90;;;1.50;;
22965;SDS011;11649;48.090;9.754;2022-12-29T04:47:59;2.03;;;1.40;;
22965;SDS011;11649;48.090;9.754;2022-12-29T04:50:26;2.67;;;1.73;;
22965;SDS011;11649;48.090;9.754;2022-12-29T04:52:53;1.85;;;1.40;;
22965;SDS011;11649;48.090;9.754;2022-12-29T04:55:20;3.80;;;1.50;;
22965;SDS011;11649;48.090;9.754;2022-12-29T04:57:47;2.30;;;1.70;;
22965;SDS011;11649;48.090;9.754;2022-12-29T05:00:13;2.75;;;1.48;;
22965;SDS011;11649;48.090;9.754;2022-12-29T05:02:41;4.80;;;1.75;;
22965;SDS011;11649;48.090;9.754;2022-12-29T05:05:08;2.83;;;1.80;;
22965;SDS011;11649;48.090;9.754;2022-12-29T05:07:35;4.15;;;1.75;;
22965;SDS011;11649;48.090;9.754;2022-12-29T05:10:02;2.38;;;1.63;;
22965;SDS011;11649;48.090;9.754;2022-12-29T05:12:30;2.72;;;1.42;;
22965;SDS011;11649;48.090;9.754;2022-12-29T05:14:58;1.98;;;1.42;;
22965;SDS011;11649;48.090;9.754;2022-12-29T05:17:25;3.08;;;1.70;;
22965;SDS011;11649;48.090;9.754;2022-12-29T05:19:52;2.72;;;1.67;;
22965;SDS011;11649;48.090;9.754;2022-12-29T05:22:19;1.65;;;1.40;;
22965;SDS011;11649;48.090;9.754;2022-12-29T05:24:45;2.25;;;1.80;;
22965;SDS011;11649;48.090;9.754;2022-12-29T05:27:12;2.58;;;1.70;;
22965;SDS011;11649;48.090;9.754;2022-12-29T05:29:39;2.67;;;1.55;;
22965;SDS011;11649;48.090;9.754;2022-12-29T05:32:06;3.08;;;1.73;;
22965;SDS011;11649;48.090;9.754;2022-12-29T05:34:33;2.08;;;1.60;;
22965;SDS011;11649;48.090;9.754;2022-12-29T05:37:00;2.55;;;1.63;;
22965;SDS011;11649;48.090;9.754;2022-12-29T05:39:28;3.33;;;1.67;;
22965;SDS011;11649;48.090;9.754;2022-12-29T05:41:55;2.67;;;1.70;;
22965;SDS011;11649;48.090;9.754;2022-12-29T05:44:22;3.53;;;1.70;;
22965;SDS011;11649;48.090;9.754;2022-12-29T05:46:49;1.90;;;1.60;;
22965;SDS011;11649;48.090;9.754;2022-12-29T05:49:16;3.10;;;1.73;;
22965;SDS011;11649;48.090;9.754;2022-12-29T05:51:43;2.42;;;1.70;;
22965;SDS011;11649;48.090;9.754;2022-12-29T05:54:10;3.15;;;2.28;;
22965;SDS011;11649;48.090;9.754;2022-12-29T05:56:37;2.80;;;1.77;;
22965;SDS011;11649;48.090;9.754;2022-12-29T05:59:04;2.15;;;1.77;;
22965;SDS011;11649;48.090;9.754;2022-12-29T06:01:31;3.53;;;2.17;;
22965;SDS011;11649;48.090;9.754;2022-12-29T06:03:58;3.72;;;2.00;;
22965;SDS011;11649;48.090;9.754;2022-12-29T06:06:25;2.78;;;1.80;;
22965;SDS011;11649;48.090;9.754;2022-12-29T06:08:51;4.60;;;2.00;;
22965;SDS011;11649;48.090;9.754;2022-12-29T06:11:18;3.42;;;1.98;;
22965;SDS011;11649;48.090;9.754;2022-12-29T06:13:45;5.28;;;2.20;;
22965;SDS011;11649;48.090;9.754;2022-12-29T06:16:12;3.88;;;2.47;;
22965;SDS011;11649;48.090;9.754;2022-12-29T06:18:39;3.47;;;2.58;;
22965;SDS011;11649;48.090;9.754;2022-12-29T06:21:05;4.05;;;3.13;;
22965;SDS011;11649;48.090;9.754;2022-12-29T06:23:32;4.90;;;3.10;;
22965;SDS011;11649;48.090;9.754;2022-12-29T06:25:59;5.70;;;2.67;;
22965;SDS011;11649;48.090;9.754;2022-12-29T06:28:26;5.35;;;3.40;;
22965;SDS011;11649;48.090;9.754;2022-12-29T06:30:52;11.88;;;5.88;;
22965;SDS011;11649;48.090;9.754;2022-12-29T06:33:19;30.10;;;13.68;;
22965;SDS011;11649;48.090;9.754;2022-12-29T06:35:47;26.50;;;12.23;;
22965;SDS011;11649;48.090;9.754;2022-12-29T06:38:14;9.05;;;4.60;;
22965;SDS011;11649;48.090;9.754;2022-12-29T06:40:41;7.25;;;3.15;;
22965;SDS011;11649;48.090;9.754;2022-12-29T06:43:11;4.07;;;2.55;;
22965;SDS011;11649;48.090;9.754;2022-12-29T06:45:38;5.93;;;2.40;;
22965;SDS011;11649;48.090;9.754;2022-12-29T06:48:06;7.47;;;2.53;;
22965;SDS011;11649;48.090;9.754;2022-12-29T06:50:33;4.03;;;2.50;;
22965;SDS011;11649;48.090;9.754;2022-12-29T06:53:00;5.40;;;2.25;;
22965;SDS011;11649;48.090;9.754;2022-12-29T06:55:27;7.20;;;3.80;;
22965;SDS011;11649;48.090;9.754;2022-12-29T06:57:57;7.45;;;4.93;;
22965;SDS011;11649;48.090;9.754;2022-12-29T07:00:24;3.50;;;2.88;;
22965;SDS011;11649;48.090;9.754;2022-12-29T07:02:51;4.25;;;2.70;;
22965;SDS011;11649;48.090;9.754;2022-12-29T07:05:20;5.88;;;2.78;;
22965;SDS011;11649;48.090;9.754;2022-12-29T07:07:47;6.35;;;4.22;;
22965;SDS011;11649;48.090;9.754;2022-12-29T07:10:14;4.38;;;2.88;;
22965;SDS011;11649;48.090;9.754;2022-12-29T07:12:41;5.88;;;2.30;;
22965;SDS011;11649;48.090;9.754;2022-12-29T07:15:07;4.53;;;2.03;;
22965;SDS011;11649;48.090;9.754;2022-12-29T07:17:35;6.85;;;2.65;;
22965;SDS011;11649;48.090;9.754;2022-12-29T07:20:01;4.82;;;3.28;;
22965;SDS011;11649;48.090;9.754;2022-12-29T07:22:28;3.47;;;2.42;;
22965;SDS011;11649;48.090;9.754;2022-12-29T07:24:55;3.03;;;2.20;;
22965;SDS011;11649;48.090;9.754;2022-12-29T07:27:22;5.35;;;2.38;;
22965;SDS011;11649;48.090;9.754;2022-12-29T07:29:49;4.60;;;3.35;;
22965;SDS011;11649;48.090;9.754;2022-12-29T07:32:16;2.28;;;1.90;;
22965;SDS011;11649;48.090;9.754;2022-12-29T07:34:43;3.38;;;2.20;;
22965;SDS011;11649;48.090;9.754;2022-12-29T07:37:11;4.45;;;2.70;;
22965;SDS011;11649;48.090;9.754;2022-12-29T07:39:38;2.75;;;2.42;;
22965;SDS011;11649;48.090;9.754;2022-12-29T07:42:05;4.50;;;2.47;;
22965;SDS011;11649;48.090;9.754;2022-12-29T07:44:32;4.15;;;2.53;;
22965;SDS011;11649;48.090;9.754;2022-12-29T07:46:59;6.85;;;3.90;;
22965;SDS011;11649;48.090;9.754;2022-12-29T07:49:27;3.90;;;2.92;;
22965;SDS011;11649;48.090;9.754;2022-12-29T07:51:54;6.28;;;2.88;;
22965;SDS011;11649;48.090;9.754;2022-12-29T07:54:21;9.35;;;5.50;;
22965;SDS011;11649;48.090;9.754;2022-12-29T07:56:49;7.05;;;4.30;;
22965;SDS011;11649;48.090;9.754;2022-12-29T07:59:16;6.55;;;3.75;;
22965;SDS011;11649;48.090;9.754;2022-12-29T08:01:43;6.55;;;4.78;;
22965;SDS011;11649;48.090;9.754;2022-12-29T08:04:10;5.93;;;3.72;;
22965;SDS011;11649;48.090;9.754;2022-12-29T08:06:37;6.22;;;4.65;;
22965;SDS011;11649;48.090;9.754;2022-12-29T08:09:07;5.30;;;4.18;;
22965;SDS011;11649;48.090;9.754;2022-12-29T08:11:43;6.97;;;4.50;;
22965;SDS011;11649;48.090;9.754;2022-12-29T08:14:10;10.02;;;6.47;;
22965;SDS011;11649;48.090;9.754;2022-12-29T08:16:37;3.80;;;2.78;;
22965;SDS011;11649;48.090;9.754;2022-12-29T08:19:04;9.90;;;3.00;;
22965;SDS011;11649;48.090;9.754;2022-12-29T08:21:31;5.40;;;3.10;;
22965;SDS011;11649;48.090;9.754;2022-12-29T08:23:58;5.85;;;2.72;;
22965;SDS011;11649;48.090;9.754;2022-12-29T08:26:25;4.97;;;3.65;;
22965;SDS011;11649;48.090;9.754;2022-12-29T08:28:52;6.25;;;3.65;;
22965;SDS011;11649;48.090;9.754;2022-12-29T08:31:20;6.57;;;4.50;;
22965;SDS011;11649;48.090;9.754;2022-12-29T08:33:49;6.03;;;4.18;;
22965;SDS011;11649;48.090;9.754;2022-12-29T08:36:19;8.95;;;4.53;;
22965;SDS011;11649;48.090;9.754;2022-12-29T08:38:48;15.23;;;8.82;;
22965;SDS011;11649;48.090;9.754;2022-12-29T08:41:15;9.82;;;5.10;;
22965;SDS011;11649;48.090;9.754;2022-12-29T08:43:45;9.52;;;6.72;;
22965;SDS011;11649;48.090;9.754;2022-12-29T08:46:13;7.65;;;3.90;;
22965;SDS011;11649;48.090;9.754;2022-12-29T08:48:40;8.52;;;5.07;;
22965;SDS011;11649;48.090;9.754;2022-12-29T08:51:07;9.93;;;4.78;;
22965;SDS011;11649;48.090;9.754;2022-12-29T08:53:35;9.93;;;5.63;;
22965;SDS011;11649;48.090;9.754;2022-12-29T08:56:02;9.18;;;4.93;;
22965;SDS011;11649;48.090;9.754;2022-12-29T08:58:31;9.30;;;5.20;;
22965;SDS011;11649;48.090;9.754;2022-12-29T09:00:58;8.18;;;4.20;;
22965;SDS011;11649;48.090;9.754;2022-12-29T09:03:25;4.43;;;2.40;;
22965;SDS011;11649;48.090;9.754;2022-12-29T09:06:13;5.75;;;2.45;;
22965;SDS011;11649;48.090;9.754;2022-12-29T09:08:41;5.75;;;3.55;;
22965;SDS011;11649;48.090;9.754;2022-12-29T09:11:09;5.50;;;2.90;;
22965;SDS011;11649;48.090;9.754;2022-12-29T09:13:40;3.80;;;2.40;;
22965;SDS011;11649;48.090;9.754;2022-12-29T09:16:07;7.03;;;4.72;;
22965;SDS011;11649;48.090;9.754;2022-12-29T09:18:34;6.30;;;2.92;;
22965;SDS011;11649;48.090;9.754;2022-12-29T09:21:02;4.55;;;2.55;;
22965;SDS011;11649;48.090;9.754;2022-12-29T09:23:30;4.25;;;2.70;;
22965;SDS011;11649;48.090;9.754;2022-12-29T09:25:58;5.63;;;2.50;;
22965;SDS011;11649;48.090;9.754;2022-12-29T09:28:25;4.78;;;2.35;;
22965;SDS011;11649;48.090;9.754;2022-12-29T09:30:51;3.53;;;2.47;;
22965;SDS011;11649;48.090;9.754;2022-12-29T09:33:18;3.78;;;2.42;;
22965;SDS011;11649;48.090;9.754;2022-12-29T09:35:49;5.40;;;2.80;;
22965;SDS011;11649;48.090;9.754;2022-12-29T09:38:18;8.35;;;2.92;;
22965;SDS011;11649;48.090;9.754;2022-12-29T09:40:49;3.80;;;2.47;;
22965;SDS011;11649;48.090;9.754;2022-12-29T09:48:41;5.85;;;2.33;;
22965;SDS011;11649;48.090;9.754;2022-12-29T09:51:15;3.57;;;2.20;;
22965;SDS011;11649;48.090;9.754;2022-12-29T09:53:46;4.20;;;2.38;;
22965;SDS011;11649;48.090;9.754;2022-12-29T09:56:20;2.85;;;1.70;;
22965;SDS011;11649;48.090;9.754;2022-12-29T09:59:10;3.13;;;1.90;;
22965;SDS011;11649;48.090;9.754;2022-12-29T10:04:21;5.50;;;1.90;;
22965;SDS011;11649;48.090;9.754;2022-12-29T10:06:54;2.80;;;2.00;;
22965;SDS011;11649;48.090;9.754;2022-12-29T10:09:50;4.72;;;3.17;;
22965;SDS011;11649;48.090;9.754;2022-12-29T10:17:49;4.53;;;2.30;;
22965;SDS011;11649;48.090;9.754;2022-12-29T10:25:58;3.55;;;1.77;;
22965;SDS011;11649;48.090;9.754;2022-12-29T10:28:41;3.10;;;1.98;;
22965;SDS011;11649;48.090;9.754;2022-12-29T10:31:16;2.75;;;1.65;;
22965;SDS011;11649;48.090;9.754;2022-12-29T10:33:54;6.50;;;4.50;;
22965;SDS011;11649;48.090;9.754;2022-12-29T10:36:27;4.32;;;1.80;;
22965;SDS011;11649;48.090;9.754;2022-12-29T10:39:14;5.13;;;2.30;;
22965;SDS011;11649;48.090;9.754;2022-12-29T10:42:01;2.47;;;1.92;;
22965;SDS011;11649;48.090;9.754;2022-12-29T10:44:37;3.70;;;2.30;;
22965;SDS011;11649;48.090;9.754;2022-12-29T10:47:05;2.95;;;1.73;;
22965;SDS011;11649;48.090;9.754;2022-12-29T10:49:37;5.95;;;2.53;;
22965;SDS011;11649;48.090;9.754;2022-12-29T10:52:09;3.78;;;2.00;;
22965;SDS011;11649;48.090;9.754;2022-12-29T10:57:10;5.47;;;3.65;;
22965;SDS011;11649;48.090;9.754;2022-12-29T10:59:44;8.10;;;2.72;;
22965;SDS011;11649;48.090;9.754;2022-12-29T11:07:04;8.15;;;2.58;;
22965;SDS011;11649;48.090;9.754;2022-12-29T11:09:38;11.13;;;5.80;;
22965;SDS011;11649;48.090;9.754;2022-12-29T11:12:25;6.65;;;2.25;;
22965;SDS011;11649;48.090;9.754;2022-12-29T11:17:43;2.88;;;1.95;;
22965;SDS011;11649;48.090;9.754;2022-12-29T11:23:05;3.05;;;1.42;;
22965;SDS011;11649;48.090;9.754;2022-12-29T11:28:37;6.60;;;1.85;;
22965;SDS011;11649;48.090;9.754;2022-12-29T11:31:05;4.68;;;2.70;;
22965;SDS011;11649;48.090;9.754;2022-12-29T11:33:37;6.80;;;2.30;;
22965;SDS011;11649;48.090;9.754;2022-12-29T11:36:06;9.93;;;6.15;;
22965;SDS011;11649;48.090;9.754;2022-12-29T11:38:42;6.78;;;5.20;;
22965;SDS011;11649;48.090;9.754;2022-12-29T11:41:18;9.40;;;5.15;;
22965;SDS011;11649;48.090;9.754;2022-12-29T11:43:48;9.82;;;4.25;;
22965;SDS011;11649;48.090;9.754;2022-12-29T11:46:18;5.28;;;2.60;;
22965;SDS011;11649;48.090;9.754;2022-12-29T11:48:49;8.68;;;2.50;;
22965;SDS011;11649;48.090;9.754;2022-12-29T11:51:59;7.00;;;3.58;;
22965;SDS011;11649;48.090;9.754;2022-12-29T11:54:16;3.43;;;1.83;;
22965;SDS011;11649;48.090;9.754;2022-12-29T11:56:48;6.30;;;2.22;;
22965;SDS011;11649;48.090;9.754;2022-12-29T12:01:56;4.18;;;3.00;;
22965;SDS011;11649;48.090;9.754;2022-12-29T12:04:26;4.07;;;2.10;;
22965;SDS011;11649;48.090;9.754;2022-12-29T12:07:16;4.85;;;2.17;;
22965;SDS011;11649;48.090;9.754;2022-12-29T12:09:53;5.47;;;3.28;;
22965;SDS011;11649;48.090;9.754;2022-12-29T12:15:08;3.90;;;2.10;;
22965;SDS011;11649;48.090;9.754;2022-12-29T12:20:27;4.43;;;3.00;;
22965;SDS011;11649;48.090;9.754;2022-12-29T12:27:24;5.22;;;2.25;;
22965;SDS011;11649;48.090;9.754;2022-12-29T12:29:36;7.00;;;2.10;;
22965;SDS011;11649;48.090;9.754;2022-12-29T12:32:17;5.78;;;1.50;;
22965;SDS011;11649;48.090;9.754;2022-12-29T12:34:49;3.53;;;1.58;;
22965;SDS011;11649;48.090;9.754;2022-12-29T12:54:27;5.28;;;1.48;;
22965;SDS011;11649;48.090;9.754;2022-12-29T13:00:27;3.35;;;1.52;;
22965;SDS011;11649;48.090;9.754;2022-12-29T13:03:11;3.10;;;1.40;;
22965;SDS011;11649;48.090;9.754;2022-12-29T13:20:18;3.17;;;2.20;;
22965;SDS011;11649;48.090;9.754;2022-12-29T13:33:54;4.05;;;1.80;;
22965;SDS011;11649;48.090;9.754;2022-12-29T13:39:27;2.90;;;1.48;;
22965;SDS011;11649;48.090;9.754;2022-12-29T13:41:59;5.07;;;2.17;;
22965;SDS011;11649;48.090;9.754;2022-12-29T13:44:31;4.53;;;1.67;;
22965;SDS011;11649;48.090;9.754;2022-12-29T13:50:15;3.60;;;1.75;;
22965;SDS011;11649;48.090;9.754;2022-12-29T13:52:45;4.55;;;1.77;;
22965;SDS011;11649;48.090;9.754;2022-12-29T13:55:35;4.57;;;1.83;;
22965;SDS011;11649;48.090;9.754;2022-12-29T13:58:13;2.60;;;1.83;;
22965;SDS011;11649;48.090;9.754;2022-12-29T14:04:00;8.63;;;1.80;;
22965;SDS011;11649;48.090;9.754;2022-12-29T14:06:35;4.40;;;2.20;;
22965;SDS011;11649;48.090;9.754;2022-12-29T14:09:26;2.60;;;1.70;;
22965;SDS011;11649;48.090;9.754;2022-12-29T14:17:37;4.72;;;2.20;;
22965;SDS011;11649;48.090;9.754;2022-12-29T14:20:06;3.63;;;1.95;;
22965;SDS011;11649;48.090;9.754;2022-12-29T14:28:27;2.47;;;1.63;;
22965;SDS011;11649;48.090;9.754;2022-12-29T14:33:29;4.03;;;2.22;;
22965;SDS011;11649;48.090;9.754;2022-12-29T14:36:18;5.70;;;3.03;;
22965;SDS011;11649;48.090;9.754;2022-12-29T14:38:46;8.07;;;3.92;;
22965;SDS011;11649;48.090;9.754;2022-12-29T14:41:33;4.45;;;2.50;;
22965;SDS011;11649;48.090;9.754;2022-12-29T14:49:15;6.60;;;3.63;;
22965;SDS011;11649;48.090;9.754;2022-12-29T14:51:45;7.60;;;3.40;;
22965;SDS011;11649;48.090;9.754;2022-12-29T14:56:59;5.38;;;3.13;;
22965;SDS011;11649;48.090;9.754;2022-12-29T14:59:30;5.15;;;3.28;;
22965;SDS011;11649;48.090;9.754;2022-12-29T15:01:58;7.50;;;4.82;;
22965;SDS011;11649;48.090;9.754;2022-12-29T15:04:32;8.95;;;5.10;;
22965;SDS011;11649;48.090;9.754;2022-12-29T15:07:01;10.15;;;6.03;;
22965;SDS011;11649;48.090;9.754;2022-12-29T15:09:37;5.13;;;3.28;;
22965;SDS011;11649;48.090;9.754;2022-12-29T15:14:50;6.57;;;4.68;;
22965;SDS011;11649;48.090;9.754;2022-12-29T15:19:55;7.22;;;5.05;;
22965;SDS011;11649;48.090;9.754;2022-12-29T15:22:23;7.45;;;5.88;;
22965;SDS011;11649;48.090;9.754;2022-12-29T15:24:52;5.03;;;3.58;;
22965;SDS011;11649;48.090;9.754;2022-12-29T15:27:29;9.77;;;6.57;;
22965;SDS011;11649;48.090;9.754;2022-12-29T15:29:59;92.07;;;49.95;;
22965;SDS011;11649;48.090;9.754;2022-12-29T15:32:45;89.22;;;42.50;;
22965;SDS011;11649;48.090;9.754;2022-12-29T15:35:31;19.80;;;14.73;;
22965;SDS011;11649;48.090;9.754;2022-12-29T15:38:00;48.20;;;31.75;;
22965;SDS011;11649;48.090;9.754;2022-12-29T15:40:39;119.60;;;53.83;;
22965;SDS011;11649;48.090;9.754;2022-12-29T15:43:09;145.25;;;55.05;;
22965;SDS011;11649;48.090;9.754;2022-12-29T15:45:47;181.05;;;66.25;;
22965;SDS011;11649;48.090;9.754;2022-12-29T15:48:21;142.63;;;54.60;;
22965;SDS011;11649;48.090;9.754;2022-12-29T15:50:49;386.83;;;148.15;;
22965;SDS011;11649;48.090;9.754;2022-12-29T15:53:30;176.70;;;64.70;;
22965;SDS011;11649;48.090;9.754;2022-12-29T15:56:05;54.20;;;24.30;;
22965;SDS011;11649;48.090;9.754;2022-12-29T15:58:43;81.10;;;43.20;;
22965;SDS011;11649;48.090;9.754;2022-12-29T16:01:22;54.03;;;32.50;;
22965;SDS011;11649;48.090;9.754;2022-12-29T16:03:53;28.58;;;19.10;;
22965;SDS011;11649;48.090;9.754;2022-12-29T16:06:31;11.93;;;8.55;;
22965;SDS011;11649;48.090;9.754;2022-12-29T16:09:04;9.38;;;5.60;;
22965;SDS011;11649;48.090;9.754;2022-12-29T16:11:34;5.88;;;4.00;;
22965;SDS011;11649;48.090;9.754;2022-12-29T16:14:10;10.43;;;7.30;;
22965;SDS011;11649;48.090;9.754;2022-12-29T16:16:45;8.02;;;4.55;;
22965;SDS011;11649;48.090;9.754;2022-12-29T16:19:15;7.95;;;4.72;;
22965;SDS011;11649;48.090;9.754;2022-12-29T16:21:44;8.50;;;5.40;;
22965;SDS011;11649;48.090;9.754;2022-12-29T16:24:13;5.75;;;3.72;;
22965;SDS011;11649;48.090;9.754;2022-12-29T16:26:49;6.22;;;3.40;;
22965;SDS011;11649;48.090;9.754;2022-12-29T16:29:22;6.10;;;3.25;;
22965;SDS011;11649;48.090;9.754;2022-12-29T16:31:56;5.35;;;3.22;;
22965;SDS011;11649;48.090;9.754;2022-12-29T16:34:33;5.07;;;2.30;;
22965;SDS011;11649;48.090;9.754;2022-12-29T16:37:29;4.10;;;2.17;;
22965;SDS011;11649;48.090;9.754;2022-12-29T16:40:40;3.20;;;2.00;;
22965;SDS011;11649;48.090;9.754;2022-12-29T16:42:55;5.93;;;1.92;;
22965;SDS011;11649;48.090;9.754;2022-12-29T16:45:35;4.00;;;2.00;;
22965;SDS011;11649;48.090;9.754;2022-12-29T16:48:16;3.85;;;2.03;;
22965;SDS011;11649;48.090;9.754;2022-12-29T16:50:51;4.80;;;2.63;;
22965;SDS011;11649;48.090;9.754;2022-12-29T16:53:39;3.78;;;2.03;;
22965;SDS011;11649;48.090;9.754;2022-12-29T16:56:09;4.40;;;2.80;;
22965;SDS011;11649;48.090;9.754;2022-12-29T16:58:41;6.82;;;4.30;;
22965;SDS011;11649;48.090;9.754;2022-12-29T17:01:14;13.88;;;11.18;;
22965;SDS011;11649;48.090;9.754;2022-12-29T17:03:50;12.20;;;10.20;;
22965;SDS011;11649;48.090;9.754;2022-12-29T17:06:20;5.78;;;2.85;;
22965;SDS011;11649;48.090;9.754;2022-12-29T17:08:48;5.32;;;2.67;;
22965;SDS011;11649;48.090;9.754;2022-12-29T17:11:26;3.80;;;2.30;;
22965;SDS011;11649;48.090;9.754;2022-12-29T17:14:28;6.30;;;3.90;;
22965;SDS011;11649;48.090;9.754;2022-12-29T17:17:29;4.50;;;2.72;;
22965;SDS011;11649;48.090;9.754;2022-12-29T17:20:04;5.20;;;3.22;;
22965;SDS011;11649;48.090;9.754;2022-12-29T17:22:51;4.97;;;2.40;;
22965;SDS011;11649;48.090;9.754;2022-12-29T17:25:20;5.13;;;1.90;;
22965;SDS011;11649;48.090;9.754;2022-12-29T17:28:11;3.60;;;2.00;;
22965;SDS011;11649;48.090;9.754;2022-12-29T17:30:48;3.75;;;2.05;;
22965;SDS011;11649;48.090;9.754;2022-12-29T17:33:19;5.18;;;1.90;;
22965;SDS011;11649;48.090;9.754;2022-12-29T17:35:46;5.43;;;1.83;;
22965;SDS011;11649;48.090;9.754;2022-12-29T17:38:30;9.30;;;1.90;;
22965;SDS011;11649;48.090;9.754;2022-12-29T17:41:00;2.67;;;1.95;;
22965;SDS011;11649;48.090;9.754;2022-12-29T17:43:27;3.97;;;2.10;;
22965;SDS011;11649;48.090;9.754;2022-12-29T17:46:02;4.55;;;2.47;;
22965;SDS011;11649;48.090;9.754;2022-12-29T17:48:31;3.55;;;2.30;;
22965;SDS011;11649;48.090;9.754;2022-12-29T17:50:58;3.40;;;2.20;;
22965;SDS011;11649;48.090;9.754;2022-12-29T17:53:26;3.55;;;2.45;;
22965;SDS011;11649;48.090;9.754;2022-12-29T17:55:54;3.75;;;2.67;;
22965;SDS011;11649;48.090;9.754;2022-12-29T18:00:53;6.75;;;3.63;;
22965;SDS011;11649;48.090;9.754;2022-12-29T18:05:57;3.42;;;2.33;;
22965;SDS011;11649;48.090;9.754;2022-12-29T18:08:24;4.47;;;2.63;;